FR3 weather

Public forecast

Using degrees Celsius for public forecast. Weather courtesy of forecast.io.

Closest aviation weather report (METAR) to Bremner Airport

Closest report is Edmonton (CFB Namao) Heliport, 9.9 nm (18.4 km) WNW. Retrieved 2020/08/14 08:00 UTC (17 minutes ago):

CYED 140800Z AUTO 31005KT 9SM FEW076 13/08 A2994 RMK SLP145

Closest aviation forecast (TAF) to Bremner Airport

Closest forecast is Edmonton (CFB Namao) Heliport, 9.9 nm (18.4 km) WNW. Retrieved 2020/08/14 06:33 UTC (2 hours ago):

TAF TAF CYED 140530Z 1406/1418 VRB03KT P6SM FEW090 BECMG 1410/1412 27008KT FM141600 27008KT P6SM BKN050 BECMG 1416/1418 27008G18KT RMK FCST BASED ON AUTO OBS 140600-141500Z NXT FCST BY 141200Z